createdAt,value
2022-12-23T08:03:48.805Z,97404.11
2022-12-23T08:06:23.646Z,97405.77
2022-12-23T08:08:56.021Z,97410.06
2022-12-23T08:11:30.456Z,97409.37
2022-12-23T08:14:24.546Z,97417.33
2022-12-23T08:16:59.439Z,97416.52
2022-12-23T08:19:58.975Z,97412.09
2022-12-23T08:22:34.160Z,97417.51
2022-12-23T08:25:20.167Z,97420.54
2022-12-23T08:28:02.168Z,97423.10
2022-12-23T08:30:51.668Z,97417.17
2022-12-23T08:33:24.124Z,97416.64
2022-12-23T08:36:22.772Z,97411.76
2022-12-23T08:38:58.872Z,97408.45
2022-12-23T08:42:25.482Z,97406.64
2022-12-23T08:45:10.730Z,97411.14
2022-12-23T08:47:53.460Z,97398.99
2022-12-23T08:50:26.231Z,97396.15
2022-12-23T08:52:56.805Z,97391.09
2022-12-23T08:55:27.676Z,97388.83
2022-12-23T08:58:00.817Z,97381.23
2022-12-23T09:00:36.716Z,97383.13
2022-12-23T09:03:11.013Z,97389.44
2022-12-23T09:06:18.206Z,97393.94
2022-12-23T09:08:58.791Z,97391.00
2022-12-23T09:11:28.176Z,97393.49
2022-12-23T09:13:57.440Z,97386.59
2022-12-23T09:16:25.332Z,97384.29
2022-12-23T09:18:55.701Z,97379.14
2022-12-23T09:21:26.460Z,97375.49
2022-12-23T09:24:03.417Z,97377.98
2022-12-23T09:26:32.277Z,97373.52
2022-12-23T09:29:01.918Z,97371.41
2022-12-23T09:31:36.619Z,97374.64
2022-12-23T09:34:11.701Z,97369.81
2022-12-23T09:37:41.128Z,97368.08
2022-12-23T09:40:22.438Z,97363.58
2022-12-23T09:43:13.829Z,97363.33
2022-12-23T09:45:49.654Z,97359.48
2022-12-23T09:48:20.812Z,97357.38
2022-12-23T09:50:49.141Z,97358.19
2022-12-23T09:53:21.384Z,97357.58
2022-12-23T09:55:50.671Z,97354.20
2022-12-23T09:58:29.318Z,97352.48
2022-12-23T10:01:21.771Z,97347.91
2022-12-23T10:04:07.260Z,97342.67
2022-12-23T10:06:36.365Z,97344.88
2022-12-23T10:09:06.414Z,97345.58
2022-12-23T10:11:49.311Z,97341.67
2022-12-23T10:14:50.513Z,97342.45
2022-12-23T10:17:28.309Z,97341.48
2022-12-23T10:20:04.208Z,97343.15
2022-12-23T10:22:47.448Z,97343.67
2022-12-23T10:25:29.001Z,97338.63
2022-12-23T10:27:55.590Z,97341.30
2022-12-23T10:33:26.492Z,97330.92
2022-12-23T10:35:57.701Z,97331.35
2022-12-23T10:38:42.810Z,97334.27
2022-12-23T10:41:36.301Z,97338.56
2022-12-23T10:44:24.629Z,97337.92
2022-12-23T10:47:40.673Z,97336.52
2022-12-23T10:50:45.524Z,97326.98
2022-12-23T10:53:19.803Z,97329.05
2022-12-23T10:55:49.686Z,97333.36
2022-12-23T10:58:17.856Z,97340.98
2022-12-23T11:00:53.082Z,97340.56
2022-12-23T11:03:29.093Z,97333.70
2022-12-23T11:05:58.055Z,97334.77
2022-12-23T11:08:29.846Z,97336.14
2022-12-23T11:11:09.529Z,97335.02
2022-12-23T11:13:43.244Z,97327.71
2022-12-23T11:16:23.120Z,97322.92
2022-12-23T11:18:53.675Z,97323.91
2022-12-23T11:21:20.754Z,97325.55
2022-12-23T11:24:17.395Z,97325.44
2022-12-23T11:27:05.639Z,97319.08
2022-12-23T11:29:53.133Z,97321.02
2022-12-23T11:32:29.272Z,97318.44
2022-12-23T11:35:35.125Z,97315.59
2022-12-23T11:38:13.384Z,97311.84
2022-12-23T11:41:11.277Z,97314.50
2022-12-23T11:44:46.083Z,97313.63
2022-12-23T11:47:28.655Z,97300.79
2022-12-23T11:50:21.033Z,97283.46
2022-12-23T11:53:49.162Z,97285.21
2022-12-23T11:57:15.463Z,97297.70
2022-12-23T12:00:40.495Z,97305.19
2022-12-23T12:04:42.646Z,97308.15
2022-12-23T12:08:39.730Z,97300.13
2022-12-23T12:11:29.063Z,97304.81
2022-12-23T12:18:05.176Z,97313.94
2022-12-23T12:22:01.544Z,97309.60
2022-12-23T12:28:27.542Z,97317.49
2022-12-23T12:31:26.322Z,97317.27
2022-12-23T12:34:19.504Z,97320.33
2022-12-23T12:37:19.249Z,97323.89
2022-12-23T12:40:13.090Z,97323.71
2022-12-23T12:42:51.768Z,97319.71
2022-12-23T12:45:23.160Z,97320.11
2022-12-23T12:48:00.157Z,97318.73
2022-12-23T13:01:08.108Z,97334.48
2022-12-23T13:03:58.209Z,97329.56
2022-12-23T13:07:21.292Z,97319.25
2022-12-23T13:10:40.572Z,97312.02
2022-12-23T13:14:08.688Z,97315.82
2022-12-23T13:17:10.343Z,97313.05
2022-12-23T13:20:15.891Z,97312.33
2022-12-23T13:23:44.299Z,97320.05
2022-12-23T13:34:07.545Z,97319.14
2022-12-23T13:36:51.438Z,97319.75
2022-12-23T13:40:09.388Z,97323.38
2022-12-23T13:42:58.221Z,97322.12
2022-12-23T13:48:53.988Z,97324.13
2022-12-23T13:51:43.119Z,97324.45
2022-12-23T13:54:26.224Z,97329.27
2022-12-23T13:57:07.806Z,97331.20
2022-12-23T13:59:41.543Z,97336.42
2022-12-23T14:02:36.410Z,97337.44
2022-12-23T14:05:08.332Z,97335.35
2022-12-23T14:08:27.031Z,97340.25
2022-12-23T14:11:22.528Z,97342.48
2022-12-23T14:13:51.677Z,97344.64
2022-12-23T14:16:51.856Z,97344.28
2022-12-23T14:20:22.443Z,97346.67
2022-12-23T14:23:33.798Z,97337.16
2022-12-23T14:26:25.250Z,97327.34
2022-12-23T14:29:04.670Z,97322.78
2022-12-23T14:31:58.154Z,97328.40
2022-12-23T14:34:28.427Z,97330.23
2022-12-23T14:37:33.133Z,97323.73
2022-12-23T14:40:49.485Z,97322.02
2022-12-23T14:43:37.293Z,97322.19
2022-12-23T14:46:43.133Z,97322.46
2022-12-23T14:49:40.889Z,97318.77
2022-12-23T14:53:00.501Z,97319.00
2022-12-23T14:55:32.667Z,97315.09
2022-12-23T20:31:36.898Z,97230.92
2022-12-23T20:34:06.299Z,97232.63
2022-12-23T20:36:35.395Z,97235.04
2022-12-23T20:39:06.332Z,97233.52
2022-12-23T20:41:35.103Z,97239.13
2022-12-23T20:46:58.750Z,97240.80
2022-12-23T20:49:29.280Z,97250.27
2022-12-23T20:52:03.113Z,97246.42
2022-12-23T20:54:35.919Z,97251.80
2022-12-23T20:57:22.488Z,97247.83
2022-12-23T20:59:58.468Z,97247.71
